Time;durP1;ratioP1;P1;durP2;ratioP2;P2;SDS_P1;SDS_P2;PMS_P1;PMS_P2;Temp;Humidity;BMP_temperature;BMP_pressure;BME280_temperature;BME280_humidity;BME280_pressure;Samples;Min_cycle;Max_cycle;Signal;HPM_P1;HPM_P2
2023/03/22 00:01:33;;;;;;;;;16.25;14.75;;;;;;;;5091348;28;10247;-86
2023/03/22 00:04:01;;;;;;;;;14.00;14.00;;;;;;;;5092776;28;10320;-88
2023/03/22 00:06:28;;;;;;;;;13.75;13.50;;;;;;;;5090880;28;10432;-86
2023/03/22 00:08:56;;;;;;;;;14.25;13.75;;;;;;;;5092641;28;10264;-86
2023/03/22 00:11:25;;;;;;;;;15.00;13.75;;;;;;;;5092741;28;10496;-87
2023/03/22 00:13:52;;;;;;;;;14.50;14.50;;;;;;;;5092338;28;10370;-85
2023/03/22 00:16:20;;;;;;;;;14.00;13.00;;;;;;;;5092246;28;10326;-87
2023/03/22 00:18:48;;;;;;;;;12.50;12.50;;;;;;;;5097101;28;10419;-85
2023/03/22 00:21:17;;;;;;;;;16.00;16.00;;;;;;;;5073248;28;10423;-87
2023/03/22 00:23:45;;;;;;;;;15.75;12.75;;;;;;;;5074331;28;10520;-87
2023/03/22 00:26:13;;;;;;;;;15.50;13.50;;;;;;;;5087733;28;10382;-87
2023/03/22 00:28:42;;;;;;;;;12.00;10.25;;;;;;;;5092120;28;10342;-89
2023/03/22 00:31:10;;;;;;;;;19.00;16.75;;;;;;;;5091828;28;10408;-87
2023/03/22 00:33:37;;;;;;;;;20.00;17.75;;;;;;;;5083620;28;10571;-87
2023/03/22 00:36:07;;;;;;;;;16.50;16.50;;;;;;;;5088187;28;10516;-87
2023/03/22 00:38:37;;;;;;;;;14.50;13.00;;;;;;;;5092681;28;10410;-88
2023/03/22 00:41:07;;;;;;;;;15.00;13.50;;;;;;;;5078593;28;10413;-86
2023/03/22 00:43:34;;;;;;;;;13.75;13.25;;;;;;;;5082426;28;10346;-87
2023/03/22 00:46:05;;;;;;;;;11.50;11.50;;;;;;;;5091196;28;10460;-87
2023/03/22 00:48:32;;;;;;;;;10.75;10.00;;;;;;;;5092428;28;10417;-86
2023/03/22 00:50:59;;;;;;;;;10.25;10.25;;;;;;;;5092901;28;10321;-85
2023/03/22 00:53:27;;;;;;;;;11.25;11.25;;;;;;;;5092540;28;10434;-85
2023/03/22 00:55:55;;;;;;;;;11.75;11.75;;;;;;;;5093499;28;10512;-85
2023/03/22 00:58:22;;;;;;;;;13.50;13.00;;;;;;;;5095600;28;10345;-86
2023/03/22 01:00:50;;;;;;;;;12.00;10.25;;;;;;;;5088178;28;10328;-87
2023/03/22 01:03:20;;;;;;;;;10.75;8.25;;;;;;;;5092951;28;10513;-86
2023/03/22 01:05:50;;;;;;;;;7.75;7.75;;;;;;;;5091582;28;10351;-85
2023/03/22 01:08:17;;;;;;;;;12.75;11.00;;;;;;;;5091146;28;10528;-87
2023/03/22 01:10:45;;;;;;;;;8.00;8.00;;;;;;;;5087432;28;10575;-85
2023/03/22 01:13:13;;;;;;;;;13.00;9.00;;;;;;;;5091282;28;10458;-85
2023/03/22 01:15:41;;;;;;;;;8.50;8.50;;;;;;;;5092049;28;10441;-86
2023/03/22 01:18:09;;;;;;;;;7.00;7.00;;;;;;;;5094753;28;10463;-84
2023/03/22 01:20:37;;;;;;;;;9.25;9.00;;;;;;;;5091985;28;10584;-86
2023/03/22 01:23:05;;;;;;;;;7.00;7.00;;;;;;;;5091084;28;10535;-86
2023/03/22 01:25:32;;;;;;;;;9.00;9.00;;;;;;;;5089212;28;10614;-87
2023/03/22 01:28:01;;;;;;;;;6.75;5.25;;;;;;;;5085997;28;10670;-85
2023/03/22 01:30:29;;;;;;;;;9.75;7.00;;;;;;;;5088146;28;10376;-85
2023/03/22 01:32:56;;;;;;;;;7.75;7.75;;;;;;;;5088144;28;10391;-88
2023/03/22 01:35:24;;;;;;;;;6.00;5.75;;;;;;;;5091029;28;10574;-87
2023/03/22 01:37:52;;;;;;;;;3.50;3.50;;;;;;;;5091130;28;10581;-86
2023/03/22 01:40:19;;;;;;;;;9.25;6.50;;;;;;;;5091000;28;10373;-86
2023/03/22 01:42:47;;;;;;;;;5.75;5.75;;;;;;;;5080574;28;10375;-87
2023/03/22 01:45:39;;;;;;;;;8.25;5.25;;;;;;;;5091456;28;10458;-88
2023/03/22 01:48:18;;;;;;;;;8.50;5.75;;;;;;;;5070439;28;10405;-86
2023/03/22 01:50:49;;;;;;;;;6.50;5.25;;;;;;;;5091925;28;10240;-88
2023/03/22 01:53:22;;;;;;;;;4.50;4.50;;;;;;;;5091441;28;10479;-88
2023/03/22 01:55:50;;;;;;;;;6.00;4.00;;;;;;;;5090213;28;10505;-89
2023/03/22 01:58:18;;;;;;;;;7.00;5.00;;;;;;;;5073480;28;10462;-87
2023/03/22 02:00:46;;;;;;;;;3.75;3.75;;;;;;;;5089193;28;11089;-88
2023/03/22 02:03:20;;;;;;;;;3.25;3.25;;;;;;;;5089631;28;10321;-87
2023/03/22 02:05:48;;;;;;;;;3.75;3.75;;;;;;;;5080964;28;10410;-87
2023/03/22 02:08:17;;;;;;;;;2.25;2.25;;;;;;;;5090324;28;10323;-88
2023/03/22 02:10:44;;;;;;;;;2.75;2.75;;;;;;;;5091164;28;10241;-87
2023/03/22 02:13:29;;;;;;;;;3.25;3.25;;;;;;;;5091834;28;10339;-88
2023/03/22 02:16:05;;;;;;;;;6.00;3.00;;;;;;;;5090932;28;10172;-87
2023/03/22 02:18:48;;;;;;;;;2.00;2.00;;;;;;;;5110705;28;10327;-86
2023/03/22 02:21:52;;;;;;;;;4.75;3.25;;;;;;;;5085641;28;10244;-88
2023/03/22 02:24:55;;;;;;;;;1.00;1.00;;;;;;;;5081162;28;10167;-87
2023/03/22 02:27:39;;;;;;;;;3.75;3.75;;;;;;;;5081540;28;10139;-87
2023/03/22 02:30:24;;;;;;;;;1.50;1.50;;;;;;;;5090264;28;10269;-87
2023/03/22 02:33:17;;;;;;;;;4.25;2.75;;;;;;;;5087728;28;10318;-83
2023/03/22 02:36:03;;;;;;;;;2.25;2.25;;;;;;;;5071689;28;10364;-85
2023/03/22 02:38:52;;;;;;;;;2.00;2.00;;;;;;;;5079041;28;10313;-85
2023/03/22 02:41:28;;;;;;;;;3.50;2.00;;;;;;;;5091822;28;10328;-84
2023/03/22 02:44:05;;;;;;;;;3.50;3.00;;;;;;;;5086234;28;10254;-85
2023/03/22 02:46:37;;;;;;;;;2.00;2.00;;;;;;;;5082762;28;10440;-84
2023/03/22 02:49:11;;;;;;;;;1.00;1.00;;;;;;;;5068818;28;10401;-83
2023/03/22 02:51:42;;;;;;;;;5.75;3.75;;;;;;;;5077604;28;10442;-86
2023/03/22 02:54:14;;;;;;;;;2.00;2.00;;;;;;;;5092979;28;10403;-87
2023/03/22 02:56:46;;;;;;;;;3.75;3.75;;;;;;;;5082547;28;10628;-85
2023/03/22 02:59:14;;;;;;;;;5.00;3.00;;;;;;;;5089754;28;10475;-84
2023/03/22 03:01:45;;;;;;;;;3.00;1.25;;;;;;;;5092785;28;10193;-87
2023/03/22 03:04:17;;;;;;;;;2.00;2.00;;;;;;;;5075142;28;10305;-87
2023/03/22 03:06:46;;;;;;;;;2.00;2.00;;;;;;;;5064639;28;10165;-86
2023/03/22 03:09:17;;;;;;;;;1.75;1.00;;;;;;;;5090055;28;10239;-86
2023/03/22 03:11:46;;;;;;;;;4.00;3.00;;;;;;;;5089154;28;10180;-87
2023/03/22 03:14:25;;;;;;;;;1.00;1.00;;;;;;;;5087706;28;10980;-86
2023/03/22 03:17:05;;;;;;;;;1.00;1.00;;;;;;;;5088853;28;10221;-84
2023/03/22 03:19:38;;;;;;;;;2.00;2.00;;;;;;;;5087700;28;10224;-86
2023/03/22 03:22:25;;;;;;;;;2.75;2.75;;;;;;;;5088357;28;10317;-85
2023/03/22 03:25:00;;;;;;;;;3.00;3.00;;;;;;;;5077807;28;10314;-85
2023/03/22 03:27:32;;;;;;;;;3.75;3.75;;;;;;;;5071797;28;10370;-86
2023/03/22 03:30:02;;;;;;;;;4.00;3.00;;;;;;;;5086390;28;10422;-85
2023/03/22 03:32:34;;;;;;;;;6.25;2.25;;;;;;;;5088930;28;10320;-85
2023/03/22 03:35:04;;;;;;;;;4.75;4.75;;;;;;;;5083637;28;11041;-87
2023/03/22 03:37:36;;;;;;;;;7.00;4.00;;;;;;;;5089462;28;10394;-87
2023/03/22 03:40:09;;;;;;;;;3.50;3.50;;;;;;;;5092831;28;10226;-85
2023/03/22 03:42:38;;;;;;;;;3.25;3.25;;;;;;;;5089772;28;10371;-84
2023/03/22 03:45:06;;;;;;;;;5.00;3.00;;;;;;;;5089607;28;10314;-83
2023/03/22 03:47:38;;;;;;;;;8.00;4.25;;;;;;;;5093600;28;10589;-86
2023/03/22 03:50:08;;;;;;;;;2.75;2.00;;;;;;;;5088278;28;10318;-88
2023/03/22 03:52:35;;;;;;;;;2.00;2.00;;;;;;;;5093134;28;10409;-87
2023/03/22 03:55:04;;;;;;;;;2.00;2.00;;;;;;;;5092851;28;10340;-88
2023/03/22 03:57:32;;;;;;;;;2.25;2.25;;;;;;;;5092736;28;10302;-88
2023/03/22 03:59:59;;;;;;;;;2.00;2.00;;;;;;;;5093036;28;10484;-87
2023/03/22 04:02:26;;;;;;;;;1.25;1.00;;;;;;;;5089113;28;10180;-87
2023/03/22 04:04:54;;;;;;;;;2.25;0.75;;;;;;;;5093219;28;10152;-87
2023/03/22 04:07:24;;;;;;;;;1.75;0.75;;;;;;;;5090034;28;10111;-87
2023/03/22 04:09:51;;;;;;;;;2.00;1.00;;;;;;;;5083038;28;10218;-86
2023/03/22 04:12:20;;;;;;;;;2.75;1.00;;;;;;;;5093225;28;10159;-87
2023/03/22 04:14:47;;;;;;;;;2.50;1.00;;;;;;;;5093039;28;10142;-88
2023/03/22 04:17:14;;;;;;;;;2.75;1.00;;;;;;;;5085441;28;10236;-86
2023/03/22 04:19:43;;;;;;;;;4.00;0.75;;;;;;;;5092774;28;10102;-85
2023/03/22 04:22:13;;;;;;;;;5.25;2.00;;;;;;;;5098841;28;10153;-85
2023/03/22 04:24:41;;;;;;;;;1.25;0.00;;;;;;;;5092063;28;10265;-86
2023/03/22 04:27:08;;;;;;;;;1.75;1.75;;;;;;;;5102881;28;10012;-85
2023/03/22 04:29:37;;;;;;;;;2.75;2.00;;;;;;;;5092613;28;10104;-85
2023/03/22 04:32:05;;;;;;;;;0.75;0.75;;;;;;;;5083957;28;10090;-85
2023/03/22 04:34:32;;;;;;;;;1.75;1.75;;;;;;;;5089727;28;10099;-85
2023/03/22 04:37:01;;;;;;;;;1.50;1.00;;;;;;;;5089150;28;10205;-85
2023/03/22 04:39:28;;;;;;;;;2.00;0.75;;;;;;;;5094442;28;10159;-85
2023/03/22 04:41:55;;;;;;;;;3.25;2.00;;;;;;;;5094612;28;10137;-86
2023/03/22 04:44:22;;;;;;;;;1.00;1.00;;;;;;;;5098387;28;10208;-85
2023/03/22 04:46:51;;;;;;;;;3.00;1.75;;;;;;;;5094311;28;10939;-86
2023/03/22 04:49:18;;;;;;;;;2.25;2.00;;;;;;;;5091632;28;10143;-86
2023/03/22 04:51:46;;;;;;;;;0.75;0.75;;;;;;;;5091245;28;10284;-87
2023/03/22 04:54:13;;;;;;;;;2.00;2.00;;;;;;;;5090875;28;10805;-86
2023/03/22 04:56:43;;;;;;;;;1.75;1.75;;;;;;;;5091118;28;10232;-85
2023/03/22 04:59:10;;;;;;;;;1.00;1.00;;;;;;;;5079841;28;10088;-86
2023/03/22 05:01:39;;;;;;;;;2.00;2.00;;;;;;;;5090749;28;10002;-86
2023/03/22 05:04:08;;;;;;;;;0.25;0.25;;;;;;;;5085205;28;10091;-85
2023/03/22 05:06:35;;;;;;;;;1.00;1.00;;;;;;;;5090929;28;10020;-86
2023/03/22 05:09:03;;;;;;;;;4.00;0.75;;;;;;;;5090444;28;10116;-87
2023/03/22 05:11:30;;;;;;;;;1.00;1.00;;;;;;;;5095557;28;10258;-87
2023/03/22 05:13:58;;;;;;;;;2.50;1.50;;;;;;;;5083912;28;10051;-86
2023/03/22 05:16:28;;;;;;;;;3.00;1.00;;;;;;;;5093693;28;10053;-84
2023/03/22 05:19:01;;;;;;;;;1.00;1.00;;;;;;;;5083570;28;10118;-84
2023/03/22 05:21:35;;;;;;;;;2.00;0.25;;;;;;;;5082354;28;9925;-88
2023/03/22 05:24:05;;;;;;;;;1.00;1.00;;;;;;;;5084451;28;10087;-84
2023/03/22 05:26:36;;;;;;;;;3.00;1.00;;;;;;;;5090523;28;10067;-84
2023/03/22 05:29:06;;;;;;;;;2.50;1.50;;;;;;;;5088484;28;10090;-85
2023/03/22 05:31:33;;;;;;;;;2.00;2.00;;;;;;;;5089148;28;10056;-84
2023/03/22 05:34:05;;;;;;;;;2.75;1.75;;;;;;;;5091105;28;10200;-87
2023/03/22 05:36:35;;;;;;;;;2.25;1.75;;;;;;;;5086655;28;10076;-85
2023/03/22 05:39:07;;;;;;;;;0.00;0.00;;;;;;;;5090785;28;10123;-85
2023/03/22 05:41:43;;;;;;;;;1.00;1.00;;;;;;;;5082620;28;10011;-86
2023/03/22 05:44:11;;;;;;;;;2.00;2.00;;;;;;;;5078579;28;10090;-88
2023/03/22 05:46:38;;;;;;;;;0.75;0.50;;;;;;;;5086696;28;10184;-85
2023/03/22 05:49:05;;;;;;;;;1.50;1.50;;;;;;;;5091150;28;10063;-85
2023/03/22 05:51:40;;;;;;;;;2.00;1.00;;;;;;;;5080661;28;10013;-86
2023/03/22 05:54:08;;;;;;;;;3.00;1.00;;;;;;;;5083601;28;9926;-85
2023/03/22 05:56:43;;;;;;;;;0.25;0.25;;;;;;;;5090124;28;10101;-86
2023/03/22 05:59:10;;;;;;;;;1.00;1.00;;;;;;;;5085604;28;10010;-85
2023/03/22 06:01:40;;;;;;;;;0.75;0.75;;;;;;;;5091567;28;9838;-85
2023/03/22 06:04:10;;;;;;;;;0.00;0.00;;;;;;;;5091503;28;10104;-85
2023/03/22 06:06:42;;;;;;;;;0.25;0.25;;;;;;;;5085991;28;10025;-85
2023/03/22 06:09:10;;;;;;;;;2.75;0.00;;;;;;;;5085349;28;9980;-86
2023/03/22 06:11:38;;;;;;;;;2.00;0.25;;;;;;;;5086825;28;9833;-86
2023/03/22 06:14:06;;;;;;;;;1.25;0.25;;;;;;;;5085026;28;9880;-86
2023/03/22 06:16:33;;;;;;;;;0.00;0.00;;;;;;;;5089573;28;10078;-86
2023/03/22 06:19:19;;;;;;;;;0.00;0.00;;;;;;;;5090318;28;9906;-87
2023/03/22 06:21:53;;;;;;;;;2.00;0.75;;;;;;;;5086567;28;9955;-89
2023/03/22 06:24:21;;;;;;;;;0.00;0.00;;;;;;;;5088755;28;9902;-89
2023/03/22 06:26:50;;;;;;;;;1.00;1.00;;;;;;;;5087457;28;9914;-89
2023/03/22 06:29:17;;;;;;;;;1.00;1.00;;;;;;;;5078669;28;9853;-88
2023/03/22 06:31:46;;;;;;;;;1.75;1.75;;;;;;;;5090325;28;9809;-87
2023/03/22 06:34:14;;;;;;;;;1.50;0.00;;;;;;;;5091208;28;10017;-87
2023/03/22 06:36:45;;;;;;;;;1.75;0.00;;;;;;;;5093285;28;9770;-86
2023/03/22 06:39:15;;;;;;;;;2.00;0.25;;;;;;;;5091835;28;9970;-87
2023/03/22 06:41:45;;;;;;;;;0.00;0.00;;;;;;;;5087565;28;9839;-86
2023/03/22 06:44:14;;;;;;;;;1.50;1.00;;;;;;;;5090412;28;9683;-84
2023/03/22 06:46:42;;;;;;;;;0.00;0.00;;;;;;;;5090041;28;9929;-85
2023/03/22 06:49:12;;;;;;;;;0.00;0.00;;;;;;;;5087162;28;9902;-86
2023/03/22 06:51:42;;;;;;;;;0.50;0.00;;;;;;;;5089484;28;9856;-86
2023/03/22 06:54:11;;;;;;;;;0.75;0.75;;;;;;;;5090370;28;9774;-86
2023/03/22 06:56:40;;;;;;;;;2.50;1.00;;;;;;;;5089874;28;9699;-86
2023/03/22 06:59:07;;;;;;;;;0.50;0.50;;;;;;;;5089625;28;9841;-86
2023/03/22 07:01:35;;;;;;;;;4.00;1.00;;;;;;;;5088595;28;9788;-78
2023/03/22 07:04:02;;;;;;;;;1.00;1.00;;;;;;;;5082058;28;10006;-77
2023/03/22 07:06:31;;;;;;;;;1.50;1.25;;;;;;;;5096687;28;9867;-80
2023/03/22 07:08:58;;;;;;;;;3.25;1.50;;;;;;;;5084476;28;9796;-79
2023/03/22 07:11:26;;;;;;;;;2.00;1.00;;;;;;;;5083310;28;9891;-76
2023/03/22 07:13:54;;;;;;;;;1.50;1.00;;;;;;;;5092742;28;9833;-78
2023/03/22 07:16:22;;;;;;;;;2.25;0.50;;;;;;;;5091727;28;9766;-77
2023/03/22 07:18:49;;;;;;;;;1.00;1.00;;;;;;;;5092345;28;9689;-80
2023/03/22 07:21:16;;;;;;;;;1.00;1.00;;;;;;;;5090753;28;9814;-75
2023/03/22 07:23:44;;;;;;;;;1.25;0.50;;;;;;;;5088732;28;9751;-73
2023/03/22 07:26:12;;;;;;;;;4.00;1.00;;;;;;;;5091256;28;9719;-77
2023/03/22 07:28:40;;;;;;;;;2.25;1.00;;;;;;;;5091282;28;10697;-75
2023/03/22 07:31:10;;;;;;;;;0.25;0.25;;;;;;;;5090711;28;9838;-78
2023/03/22 07:33:37;;;;;;;;;2.50;1.25;;;;;;;;5091537;28;10405;-75
2023/03/22 07:36:05;;;;;;;;;2.00;1.00;;;;;;;;5091122;28;9715;-78
2023/03/22 07:38:33;;;;;;;;;2.00;0.75;;;;;;;;5090923;28;9780;-78
2023/03/22 07:41:00;;;;;;;;;3.50;1.00;;;;;;;;5091120;28;9684;-77
2023/03/22 07:43:27;;;;;;;;;1.00;1.00;;;;;;;;5090868;28;9855;-75
2023/03/22 07:45:55;;;;;;;;;2.00;0.50;;;;;;;;5091535;28;9669;-75
2023/03/22 07:48:24;;;;;;;;;2.00;1.00;;;;;;;;5090396;28;9675;-75
2023/03/22 07:50:55;;;;;;;;;2.00;2.00;;;;;;;;5091387;28;9610;-77
2023/03/22 07:53:23;;;;;;;;;1.00;1.00;;;;;;;;5090685;28;9594;-78
2023/03/22 07:55:50;;;;;;;;;1.25;1.25;;;;;;;;5091346;28;9545;-80
2023/03/22 07:58:17;;;;;;;;;3.00;1.25;;;;;;;;5090346;28;9727;-77
2023/03/22 08:00:44;;;;;;;;;1.00;1.00;;;;;;;;5090935;28;9640;-79
2023/03/22 08:03:13;;;;;;;;;1.50;1.00;;;;;;;;5090691;28;9584;-77
2023/03/22 08:05:42;;;;;;;;;3.75;2.00;;;;;;;;5091220;28;9589;-78
2023/03/22 08:08:12;;;;;;;;;2.00;2.00;;;;;;;;5090472;28;9707;-77
2023/03/22 08:10:39;;;;;;;;;1.75;1.75;;;;;;;;5090910;28;10639;-81
2023/03/22 08:13:07;;;;;;;;;3.75;1.00;;;;;;;;5090499;28;9769;-78
2023/03/22 08:15:36;;;;;;;;;4.25;2.00;;;;;;;;5089395;28;9704;-78
2023/03/22 08:18:03;;;;;;;;;2.00;2.00;;;;;;;;5087540;28;9690;-78
2023/03/22 08:20:30;;;;;;;;;2.00;2.00;;;;;;;;5091812;28;9840;-81
2023/03/22 08:22:59;;;;;;;;;2.50;2.50;;;;;;;;5090473;28;9606;-84
2023/03/22 08:25:27;;;;;;;;;1.50;1.00;;;;;;;;5093844;28;9780;-77
2023/03/22 08:27:54;;;;;;;;;4.00;2.00;;;;;;;;5093807;28;9747;-85
2023/03/22 08:30:22;;;;;;;;;3.25;2.50;;;;;;;;5091014;28;9789;-84
2023/03/22 08:32:49;;;;;;;;;3.00;3.00;;;;;;;;5094732;28;9652;-81
2023/03/22 08:35:16;;;;;;;;;5.00;3.00;;;;;;;;5080735;28;9937;-78
2023/03/22 08:37:43;;;;;;;;;4.25;3.00;;;;;;;;5082415;28;9878;-82
2023/03/22 08:40:13;;;;;;;;;3.00;3.00;;;;;;;;5089876;28;9885;-80
2023/03/22 08:42:40;;;;;;;;;3.00;3.00;;;;;;;;5078362;28;9696;-80
2023/03/22 08:45:09;;;;;;;;;4.75;4.75;;;;;;;;5078009;28;10021;-81
2023/03/22 08:47:36;;;;;;;;;2.50;2.50;;;;;;;;5091455;28;9725;-80
2023/03/22 08:50:04;;;;;;;;;7.00;4.00;;;;;;;;5091553;28;10567;-84
2023/03/22 08:52:31;;;;;;;;;5.25;4.50;;;;;;;;5090941;28;9815;-79
2023/03/22 08:54:58;;;;;;;;;4.75;3.75;;;;;;;;5090475;28;9770;-75
2023/03/22 08:57:28;;;;;;;;;6.50;5.00;;;;;;;;5081635;28;9709;-77
2023/03/22 08:59:56;;;;;;;;;4.00;4.00;;;;;;;;5090991;28;9777;-80
2023/03/22 09:02:23;;;;;;;;;6.50;5.00;;;;;;;;5079768;28;9665;-82
2023/03/22 09:04:51;;;;;;;;;3.75;2.00;;;;;;;;5081967;28;9754;-82
2023/03/22 09:07:19;;;;;;;;;2.50;2.50;;;;;;;;5085308;28;9701;-78
2023/03/22 09:09:46;;;;;;;;;4.25;3.00;;;;;;;;5082400;28;9695;-80
2023/03/22 09:12:13;;;;;;;;;3.75;3.75;;;;;;;;5085373;28;9731;-74
2023/03/22 09:14:42;;;;;;;;;6.50;5.00;;;;;;;;5081763;28;9605;-76
2023/03/22 09:17:09;;;;;;;;;4.25;4.00;;;;;;;;5089495;28;9808;-75
2023/03/22 09:19:36;;;;;;;;;4.00;4.00;;;;;;;;5089506;28;9758;-79
2023/03/22 09:22:04;;;;;;;;;6.00;0.75;;;;;;;;5087953;28;9529;-78
2023/03/22 09:24:31;;;;;;;;;6.00;4.25;;;;;;;;5088953;28;9759;-76
2023/03/22 09:26:58;;;;;;;;;5.00;4.00;;;;;;;;5089571;28;9860;-76
2023/03/22 09:29:25;;;;;;;;;3.75;3.75;;;;;;;;5088213;28;9844;-78
2023/03/22 09:31:54;;;;;;;;;6.00;4.00;;;;;;;;5088101;28;9749;-74
2023/03/22 09:34:21;;;;;;;;;4.75;4.00;;;;;;;;5089066;28;9852;-76
2023/03/22 09:36:48;;;;;;;;;6.00;5.00;;;;;;;;5086950;28;9852;-76
2023/03/22 09:39:15;;;;;;;;;6.00;4.00;;;;;;;;5089095;28;9755;-77
2023/03/22 09:41:48;;;;;;;;;3.50;3.50;;;;;;;;5083698;28;9678;-78
2023/03/22 09:44:21;;;;;;;;;6.75;6.75;;;;;;;;5084086;28;9791;-82
2023/03/22 09:46:50;;;;;;;;;2.50;2.50;;;;;;;;5090224;28;9939;-82
2023/03/22 09:49:22;;;;;;;;;8.00;5.75;;;;;;;;5080707;28;9873;-82
2023/03/22 09:51:51;;;;;;;;;5.25;4.75;;;;;;;;5089050;28;10077;-81
2023/03/22 09:54:20;;;;;;;;;4.50;4.50;;;;;;;;5088427;28;10004;-76
2023/03/22 09:56:51;;;;;;;;;6.00;6.00;;;;;;;;5089962;28;10780;-81
2023/03/22 09:59:23;;;;;;;;;5.00;5.00;;;;;;;;5093410;28;9969;-82
2023/03/22 10:01:53;;;;;;;;;7.75;6.00;;;;;;;;5082494;27;9949;-82
2023/03/22 10:04:30;;;;;;;;;6.75;5.25;;;;;;;;5089340;28;9842;-82
2023/03/22 10:07:03;;;;;;;;;7.00;6.00;;;;;;;;5089311;28;9915;-78
2023/03/22 10:09:33;;;;;;;;;6.25;5.00;;;;;;;;5088933;28;9843;-77
2023/03/22 10:12:04;;;;;;;;;5.00;5.00;;;;;;;;5089535;28;9844;-77
2023/03/22 10:14:36;;;;;;;;;11.50;5.00;;;;;;;;5070200;28;10013;-80
2023/03/22 10:17:06;;;;;;;;;0.50;0.50;;;;;;;;5085784;28;9916;-82
2023/03/22 10:19:36;;;;;;;;;5.00;5.00;;;;;;;;5092899;28;9635;-80
2023/03/22 10:22:05;;;;;;;;;5.75;5.50;;;;;;;;5092474;28;9893;-80
2023/03/22 10:24:33;;;;;;;;;7.00;6.00;;;;;;;;5078008;28;9827;-76
2023/03/22 10:27:01;;;;;;;;;6.00;6.00;;;;;;;;5086053;28;9952;-75
2023/03/22 10:29:32;;;;;;;;;6.75;4.75;;;;;;;;5085850;28;9945;-75
2023/03/22 10:32:13;;;;;;;;;6.00;6.00;;;;;;;;5082294;28;9717;-76
2023/03/22 10:34:42;;;;;;;;;4.00;4.00;;;;;;;;5088118;28;9845;-75
2023/03/22 10:37:13;;;;;;;;;7.25;6.00;;;;;;;;5078799;28;9785;-75
2023/03/22 10:39:42;;;;;;;;;7.75;6.00;;;;;;;;5079205;28;9893;-75
2023/03/22 10:42:14;;;;;;;;;7.25;4.75;;;;;;;;5087592;28;9926;-75
2023/03/22 10:44:46;;;;;;;;;4.50;3.25;;;;;;;;5088699;28;9928;-76
2023/03/22 10:47:17;;;;;;;;;8.00;6.25;;;;;;;;5083229;28;9884;-75
2023/03/22 10:49:51;;;;;;;;;5.25;4.25;;;;;;;;5082040;28;9859;-75
2023/03/22 10:52:32;;;;;;;;;7.00;5.25;;;;;;;;5076514;28;9673;-76
2023/03/22 10:55:00;;;;;;;;;5.00;5.00;;;;;;;;5087819;28;9719;-76
2023/03/22 10:57:30;;;;;;;;;5.75;5.75;;;;;;;;5087876;28;10486;-82
2023/03/22 10:59:57;;;;;;;;;6.75;6.75;;;;;;;;5086950;28;9783;-78
2023/03/22 11:02:27;;;;;;;;;6.75;5.00;;;;;;;;5079806;28;9610;-74
2023/03/22 11:04:58;;;;;;;;;6.00;5.50;;;;;;;;5086974;28;9774;-76
2023/03/22 11:07:32;;;;;;;;;7.25;5.75;;;;;;;;5087504;28;9629;-78
2023/03/22 11:10:17;;;;;;;;;5.50;5.50;;;;;;;;5081204;28;9672;-78
2023/03/22 11:12:48;;;;;;;;;7.75;5.75;;;;;;;;5084583;28;10512;-78
2023/03/22 11:15:23;;;;;;;;;5.50;5.50;;;;;;;;5086791;28;9687;-76
2023/03/22 11:17:50;;;;;;;;;6.00;5.50;;;;;;;;5087383;28;9557;-77
2023/03/22 11:20:21;;;;;;;;;6.50;6.50;;;;;;;;5086701;28;9547;-76
2023/03/22 11:22:49;;;;;;;;;8.00;7.00;;;;;;;;5084436;28;9498;-77
2023/03/22 11:25:20;;;;;;;;;8.00;8.00;;;;;;;;5069183;28;9537;-78
2023/03/22 11:27:53;;;;;;;;;6.00;6.00;;;;;;;;5077418;28;9493;-80
2023/03/22 11:30:22;;;;;;;;;6.00;6.00;;;;;;;;5086200;28;10234;-78
2023/03/22 11:32:49;;;;;;;;;6.33;6.33;;;;;;;;5087640;28;9440;-81
2023/03/22 11:35:20;;;;;;;;;5.33;3.67;;;;;;;;5086462;28;9302;-78
2023/03/22 11:37:50;;;;;;;;;8.00;5.00;;;;;;;;5087546;28;9301;-74
2023/03/22 11:40:19;;;;;;;;;4.33;4.33;;;;;;;;5086851;28;9341;-80
2023/03/22 11:42:47;;;;;;;;;7.67;7.00;;;;;;;;5087547;28;9283;-80
2023/03/22 11:45:17;;;;;;;;;6.67;6.67;;;;;;;;5086429;28;9222;-76
2023/03/22 11:47:44;;;;;;;;;5.00;5.00;;;;;;;;5087672;28;9332;-75
2023/03/22 11:50:28;;;;;;;;;4.67;4.67;;;;;;;;5087594;28;9210;-83
2023/03/22 11:52:56;;;;;;;;;5.33;5.33;;;;;;;;5089767;28;9090;-83
2023/03/22 11:55:24;;;;;;;;;6.00;6.00;;;;;;;;5095507;28;9179;-83
2023/03/22 11:57:51;;;;;;;;;5.67;4.00;;;;;;;;5096528;28;8982;-76
2023/03/22 12:00:21;;;;;;;;;5.00;5.00;;;;;;;;5079340;28;9080;-82
2023/03/22 12:02:51;;;;;;;;;6.00;6.00;;;;;;;;5091477;28;9067;-88
2023/03/22 12:05:21;;;;;;;;;5.00;5.00;;;;;;;;5087645;28;9016;-85
2023/03/22 12:07:54;;;;;;;;;7.00;4.00;;;;;;;;5087807;28;8954;-84
2023/03/22 12:10:25;;;;;;;;;5.00;5.00;;;;;;;;5093261;28;9019;-83
2023/03/22 12:12:55;;;;;;;;;8.33;6.00;;;;;;;;5094365;28;9095;-84
2023/03/22 12:15:24;;;;;;;;;4.00;4.00;;;;;;;;5095259;28;9420;-80
2023/03/22 12:17:56;;;;;;;;;5.00;5.00;;;;;;;;5085590;28;8982;-80
2023/03/22 12:20:36;;;;;;;;;5.00;5.00;;;;;;;;5076471;28;8958;-78
2023/03/22 12:23:12;;;;;;;;;7.00;5.67;;;;;;;;5081325;28;9062;-77
2023/03/22 12:25:41;;;;;;;;;4.67;4.67;;;;;;;;5077719;28;9000;-81
2023/03/22 12:28:12;;;;;;;;;6.00;6.00;;;;;;;;5090142;28;8925;-80
2023/03/22 12:30:42;;;;;;;;;4.00;4.00;;;;;;;;5078617;28;8930;-75
2023/03/22 12:33:13;;;;;;;;;3.67;3.67;;;;;;;;5090467;28;9005;-78
2023/03/22 12:35:44;;;;;;;;;5.00;5.00;;;;;;;;5089658;28;8924;-76
2023/03/22 12:38:23;;;;;;;;;8.00;6.00;;;;;;;;5090174;28;8870;-78
2023/03/22 12:40:52;;;;;;;;;4.00;4.00;;;;;;;;5090285;28;8964;-76
2023/03/22 12:43:25;;;;;;;;;6.67;6.33;;;;;;;;5090514;28;9005;-79
2023/03/22 12:45:58;;;;;;;;;4.00;4.00;;;;;;;;5090025;28;9074;-78
2023/03/22 12:48:33;;;;;;;;;6.67;6.67;;;;;;;;5089617;28;9047;-75
2023/03/22 12:51:03;;;;;;;;;6.67;6.67;;;;;;;;5080048;28;9017;-77
2023/03/22 12:53:41;;;;;;;;;5.67;5.67;;;;;;;;5088438;28;8996;-74
2023/03/22 12:56:09;;;;;;;;;7.00;7.00;;;;;;;;5081766;28;8996;-75
2023/03/22 12:58:36;;;;;;;;;6.33;6.33;;;;;;;;5089313;28;9047;-73
2023/03/22 13:01:16;;;;;;;;;8.33;6.00;;;;;;;;5089280;28;8956;-74
2023/03/22 13:03:46;;;;;;;;;5.25;5.25;;;;;;;;5089057;28;9020;-73
2023/03/22 13:06:29;;;;;;;;;4.25;4.25;;;;;;;;5089402;28;8865;-72
2023/03/22 13:09:16;;;;;;;;;5.33;5.33;;;;;;;;5079977;28;8935;-78
2023/03/22 13:11:45;;;;;;;;;6.75;6.75;;;;;;;;5089299;28;8920;-74
2023/03/22 13:14:32;;;;;;;;;5.50;4.00;;;;;;;;5089586;28;8850;-75
2023/03/22 13:17:00;;;;;;;;;4.75;4.75;;;;;;;;5079499;28;8878;-74
2023/03/22 13:19:34;;;;;;;;;5.00;5.00;;;;;;;;5085792;28;8846;-79
2023/03/22 13:22:16;;;;;;;;;7.50;5.50;;;;;;;;5086555;28;8884;-74
2023/03/22 13:27:42;;;;;;;;;6.50;5.25;;;;;;;;5106428;27;13584;-78
2023/03/22 13:30:17;;;;;;;;;6.25;5.00;;;;;;;;5063852;28;8899;-78
2023/03/22 13:32:50;;;;;;;;;6.25;5.75;;;;;;;;5055497;28;8849;-78
2023/03/22 13:35:23;;;;;;;;;4.75;4.75;;;;;;;;5064452;28;8847;-77
2023/03/22 13:37:52;;;;;;;;;3.25;3.25;;;;;;;;5064833;28;8853;-75
2023/03/22 13:40:33;;;;;;;;;5.50;4.50;;;;;;;;5064181;28;8923;-77
2023/03/22 13:43:25;;;;;;;;;4.25;4.25;;;;;;;;5065208;28;8974;-75
2023/03/22 13:46:30;;;;;;;;;6.25;5.00;;;;;;;;5064729;28;8857;-77
2023/03/22 13:49:25;;;;;;;;;5.25;3.50;;;;;;;;5052155;28;8904;-79
2023/03/22 13:51:53;;;;;;;;;7.00;4.00;;;;;;;;5064541;28;8848;-79
2023/03/22 13:54:23;;;;;;;;;2.00;2.00;;;;;;;;5064477;28;8879;-79
2023/03/22 13:56:55;;;;;;;;;5.25;5.25;;;;;;;;5064372;28;9663;-77
2023/03/22 13:59:32;;;;;;;;;3.00;3.00;;;;;;;;5064577;28;9806;-80
2023/03/22 14:02:03;;;;;;;;;4.50;4.50;;;;;;;;5064881;28;9715;-74
2023/03/22 14:04:34;;;;;;;;;5.00;3.75;;;;;;;;5061661;28;8841;-79
2023/03/22 14:07:09;;;;;;;;;3.25;3.25;;;;;;;;5068081;28;8873;-78
2023/03/22 14:09:43;;;;;;;;;5.25;5.25;;;;;;;;5068364;28;8862;-79
2023/03/22 14:12:16;;;;;;;;;4.50;4.50;;;;;;;;5070252;28;8857;-87
2023/03/22 14:14:49;;;;;;;;;4.75;4.75;;;;;;;;5061979;28;8863;-78
2023/03/22 14:17:24;;;;;;;;;6.00;4.50;;;;;;;;5061227;28;8830;-78
2023/03/22 14:19:53;;;;;;;;;5.50;5.50;;;;;;;;5064011;28;8857;-75
2023/03/22 14:22:27;;;;;;;;;6.00;4.75;;;;;;;;5063192;28;8837;-77
2023/03/22 14:24:54;;;;;;;;;5.50;5.50;;;;;;;;5063914;28;8853;-74
2023/03/22 14:27:22;;;;;;;;;5.75;5.75;;;;;;;;5081432;28;8853;-78
2023/03/22 14:29:50;;;;;;;;;5.00;5.00;;;;;;;;5084032;28;8883;-80
2023/03/22 14:32:22;;;;;;;;;3.50;3.50;;;;;;;;5082789;28;8877;-77
2023/03/22 14:34:55;;;;;;;;;6.75;5.25;;;;;;;;5084204;28;8942;-77
2023/03/22 14:37:24;;;;;;;;;4.00;4.00;;;;;;;;5078642;28;8932;-75
2023/03/22 14:39:52;;;;;;;;;7.00;5.00;;;;;;;;5070572;28;8873;-75
2023/03/22 14:42:27;;;;;;;;;5.00;5.00;;;;;;;;5069767;28;8877;-78
2023/03/22 14:44:58;;;;;;;;;4.50;4.50;;;;;;;;5070610;28;8856;-75
2023/03/22 14:47:28;;;;;;;;;5.25;4.75;;;;;;;;5058570;28;8937;-77
2023/03/22 14:49:56;;;;;;;;;8.50;5.00;;;;;;;;5069748;28;8876;-74
2023/03/22 14:52:27;;;;;;;;;5.00;5.00;;;;;;;;5070490;28;8879;-77
2023/03/22 14:54:58;;;;;;;;;6.75;6.75;;;;;;;;5071446;28;8860;-81
2023/03/22 14:57:27;;;;;;;;;4.00;4.00;;;;;;;;5071754;28;8893;-79
2023/03/22 14:59:57;;;;;;;;;4.75;4.25;;;;;;;;5070909;28;8863;-80
2023/03/22 15:02:35;;;;;;;;;5.00;5.00;;;;;;;;5069746;28;8799;-74
2023/03/22 15:05:07;;;;;;;;;5.75;5.75;;;;;;;;5069637;28;8852;-77
2023/03/22 15:07:45;;;;;;;;;5.00;5.00;;;;;;;;5068873;28;8882;-74
2023/03/22 15:10:15;;;;;;;;;6.00;4.75;;;;;;;;5069395;28;8840;-76
2023/03/22 15:12:43;;;;;;;;;6.25;6.25;;;;;;;;5068981;28;8866;-82